sensor_id;sensor_type;location;lat;lon;timestamp;P1;durP1;ratioP1;P2;durP2;ratioP2
74102;SDS011;62853;46.166;3.640;2022-12-07T00:01:10;11.20;;;8.60;;
74102;SDS011;62853;46.166;3.640;2022-12-07T00:03:39;10.70;;;8.55;;
74102;SDS011;62853;46.166;3.640;2022-12-07T00:06:06;12.18;;;8.98;;
74102;SDS011;62853;46.166;3.640;2022-12-07T00:08:32;11.40;;;9.10;;
74102;SDS011;62853;46.166;3.640;2022-12-07T00:13:29;12.88;;;9.07;;
74102;SDS011;62853;46.166;3.640;2022-12-07T00:15:55;13.20;;;9.27;;
74102;SDS011;62853;46.166;3.640;2022-12-07T00:18:20;14.10;;;9.73;;
74102;SDS011;62853;46.166;3.640;2022-12-07T00:20:45;11.20;;;9.32;;
74102;SDS011;62853;46.166;3.640;2022-12-07T00:23:10;11.35;;;9.23;;
74102;SDS011;62853;46.166;3.640;2022-12-07T00:25:36;10.02;;;8.00;;
74102;SDS011;62853;46.166;3.640;2022-12-07T00:28:01;9.95;;;7.78;;
74102;SDS011;62853;46.166;3.640;2022-12-07T00:30:27;9.45;;;7.85;;
74102;SDS011;62853;46.166;3.640;2022-12-07T00:32:52;10.38;;;8.65;;
74102;SDS011;62853;46.166;3.640;2022-12-07T00:35:17;10.38;;;8.10;;
74102;SDS011;62853;46.166;3.640;2022-12-07T00:37:43;11.48;;;8.85;;
74102;SDS011;62853;46.166;3.640;2022-12-07T00:40:08;9.90;;;7.25;;
74102;SDS011;62853;46.166;3.640;2022-12-07T00:42:34;9.85;;;8.30;;
74102;SDS011;62853;46.166;3.640;2022-12-07T00:44:59;10.23;;;7.85;;
74102;SDS011;62853;46.166;3.640;2022-12-07T00:47:24;10.10;;;6.97;;
74102;SDS011;62853;46.166;3.640;2022-12-07T00:49:50;11.10;;;6.78;;
74102;SDS011;62853;46.166;3.640;2022-12-07T00:52:15;12.25;;;8.50;;
74102;SDS011;62853;46.166;3.640;2022-12-07T00:54:41;10.25;;;6.53;;
74102;SDS011;62853;46.166;3.640;2022-12-07T00:57:06;8.95;;;7.47;;
74102;SDS011;62853;46.166;3.640;2022-12-07T00:59:31;10.35;;;7.93;;
74102;SDS011;62853;46.166;3.640;2022-12-07T01:01:57;8.32;;;6.80;;
74102;SDS011;62853;46.166;3.640;2022-12-07T01:04:22;10.43;;;7.10;;
74102;SDS011;62853;46.166;3.640;2022-12-07T01:06:48;9.65;;;7.05;;
74102;SDS011;62853;46.166;3.640;2022-12-07T01:09:13;9.85;;;7.68;;
74102;SDS011;62853;46.166;3.640;2022-12-07T01:11:38;10.48;;;8.65;;
74102;SDS011;62853;46.166;3.640;2022-12-07T01:14:04;10.25;;;7.40;;
74102;SDS011;62853;46.166;3.640;2022-12-07T01:16:30;13.73;;;8.30;;
74102;SDS011;62853;46.166;3.640;2022-12-07T01:18:57;12.43;;;8.85;;
74102;SDS011;62853;46.166;3.640;2022-12-07T01:21:27;10.70;;;8.70;;
74102;SDS011;62853;46.166;3.640;2022-12-07T01:24:00;9.45;;;7.05;;
74102;SDS011;62853;46.166;3.640;2022-12-07T01:26:25;9.98;;;7.32;;
74102;SDS011;62853;46.166;3.640;2022-12-07T01:28:52;9.48;;;6.75;;
74102;SDS011;62853;46.166;3.640;2022-12-07T01:31:23;9.82;;;6.55;;
74102;SDS011;62853;46.166;3.640;2022-12-07T01:33:51;8.68;;;5.93;;
74102;SDS011;62853;46.166;3.640;2022-12-07T01:36:22;9.98;;;6.50;;
74102;SDS011;62853;46.166;3.640;2022-12-07T01:38:50;8.48;;;6.53;;
74102;SDS011;62853;46.166;3.640;2022-12-07T01:41:17;8.40;;;6.72;;
74102;SDS011;62853;46.166;3.640;2022-12-07T01:46:36;9.38;;;7.63;;
74102;SDS011;62853;46.166;3.640;2022-12-07T01:49:03;9.80;;;7.88;;
74102;SDS011;62853;46.166;3.640;2022-12-07T01:51:31;12.82;;;6.90;;
74102;SDS011;62853;46.166;3.640;2022-12-07T01:53:56;11.32;;;7.22;;
74102;SDS011;62853;46.166;3.640;2022-12-07T01:56:23;10.73;;;7.15;;
74102;SDS011;62853;46.166;3.640;2022-12-07T01:58:51;7.15;;;6.07;;
74102;SDS011;62853;46.166;3.640;2022-12-07T02:01:17;9.52;;;6.38;;
74102;SDS011;62853;46.166;3.640;2022-12-07T02:03:43;7.80;;;6.22;;
74102;SDS011;62853;46.166;3.640;2022-12-07T02:06:10;9.05;;;6.45;;
74102;SDS011;62853;46.166;3.640;2022-12-07T02:08:39;8.38;;;5.97;;
74102;SDS011;62853;46.166;3.640;2022-12-07T02:11:05;7.55;;;6.40;;
74102;SDS011;62853;46.166;3.640;2022-12-07T02:13:33;10.07;;;7.25;;
74102;SDS011;62853;46.166;3.640;2022-12-07T02:16:16;8.90;;;6.85;;
74102;SDS011;62853;46.166;3.640;2022-12-07T02:21:51;10.90;;;7.93;;
74102;SDS011;62853;46.166;3.640;2022-12-07T02:24:45;13.35;;;7.45;;
74102;SDS011;62853;46.166;3.640;2022-12-07T02:27:34;10.57;;;6.95;;
74102;SDS011;62853;46.166;3.640;2022-12-07T02:30:13;9.23;;;6.40;;
74102;SDS011;62853;46.166;3.640;2022-12-07T02:32:54;9.10;;;6.65;;
74102;SDS011;62853;46.166;3.640;2022-12-07T02:35:27;8.97;;;6.20;;
74102;SDS011;62853;46.166;3.640;2022-12-07T02:43:50;8.15;;;5.68;;
74102;SDS011;62853;46.166;3.640;2022-12-07T02:46:27;10.95;;;6.40;;
74102;SDS011;62853;46.166;3.640;2022-12-07T02:48:56;6.45;;;5.70;;
74102;SDS011;62853;46.166;3.640;2022-12-07T02:51:24;8.48;;;6.35;;
74102;SDS011;62853;46.166;3.640;2022-12-07T02:53:49;10.35;;;6.57;;
74102;SDS011;62853;46.166;3.640;2022-12-07T02:56:19;11.13;;;6.30;;
74102;SDS011;62853;46.166;3.640;2022-12-07T03:02:03;7.95;;;6.55;;
74102;SDS011;62853;46.166;3.640;2022-12-07T03:07:32;8.98;;;7.20;;
74102;SDS011;62853;46.166;3.640;2022-12-07T03:15:34;9.52;;;7.05;;
74102;SDS011;62853;46.166;3.640;2022-12-07T03:18:04;8.48;;;6.13;;
74102;SDS011;62853;46.166;3.640;2022-12-07T03:20:32;10.32;;;6.57;;
74102;SDS011;62853;46.166;3.640;2022-12-07T03:23:03;9.25;;;7.70;;
74102;SDS011;62853;46.166;3.640;2022-12-07T03:25:31;9.00;;;6.20;;
74102;SDS011;62853;46.166;3.640;2022-12-07T03:28:04;9.43;;;6.00;;
74102;SDS011;62853;46.166;3.640;2022-12-07T03:30:39;8.43;;;6.05;;
74102;SDS011;62853;46.166;3.640;2022-12-07T03:33:15;7.65;;;6.50;;
74102;SDS011;62853;46.166;3.640;2022-12-07T03:36:10;8.43;;;6.07;;
74102;SDS011;62853;46.166;3.640;2022-12-07T03:41:54;10.23;;;6.55;;
74102;SDS011;62853;46.166;3.640;2022-12-07T03:44:21;10.32;;;6.10;;
74102;SDS011;62853;46.166;3.640;2022-12-07T03:46:52;9.07;;;6.18;;
74102;SDS011;62853;46.166;3.640;2022-12-07T03:54:30;8.30;;;5.60;;
74102;SDS011;62853;46.166;3.640;2022-12-07T03:57:01;7.95;;;5.78;;
74102;SDS011;62853;46.166;3.640;2022-12-07T03:59:29;9.05;;;5.35;;
74102;SDS011;62853;46.166;3.640;2022-12-07T04:01:56;6.75;;;5.70;;
74102;SDS011;62853;46.166;3.640;2022-12-07T04:04:26;9.25;;;5.63;;
74102;SDS011;62853;46.166;3.640;2022-12-07T04:06:52;8.25;;;5.88;;
74102;SDS011;62853;46.166;3.640;2022-12-07T04:09:17;7.20;;;5.32;;
74102;SDS011;62853;46.166;3.640;2022-12-07T04:11:43;7.47;;;6.10;;
74102;SDS011;62853;46.166;3.640;2022-12-07T04:14:08;7.32;;;5.82;;
74102;SDS011;62853;46.166;3.640;2022-12-07T04:16:43;6.78;;;5.53;;
74102;SDS011;62853;46.166;3.640;2022-12-07T04:19:13;5.95;;;5.30;;
74102;SDS011;62853;46.166;3.640;2022-12-07T04:21:38;6.53;;;5.80;;
74102;SDS011;62853;46.166;3.640;2022-12-07T04:24:04;8.73;;;5.78;;
74102;SDS011;62853;46.166;3.640;2022-12-07T04:26:29;15.32;;;6.55;;
74102;SDS011;62853;46.166;3.640;2022-12-07T04:28:55;7.72;;;5.93;;
74102;SDS011;62853;46.166;3.640;2022-12-07T04:31:20;8.23;;;6.07;;
74102;SDS011;62853;46.166;3.640;2022-12-07T04:33:45;8.55;;;5.88;;
74102;SDS011;62853;46.166;3.640;2022-12-07T04:36:11;7.78;;;5.88;;
74102;SDS011;62853;46.166;3.640;2022-12-07T04:38:36;8.98;;;6.18;;
74102;SDS011;62853;46.166;3.640;2022-12-07T04:41:05;8.30;;;6.00;;
74102;SDS011;62853;46.166;3.640;2022-12-07T04:43:32;8.10;;;5.30;;
74102;SDS011;62853;46.166;3.640;2022-12-07T04:45:57;5.43;;;4.88;;
74102;SDS011;62853;46.166;3.640;2022-12-07T04:48:23;5.90;;;4.85;;
74102;SDS011;62853;46.166;3.640;2022-12-07T04:50:48;6.15;;;4.22;;
74102;SDS011;62853;46.166;3.640;2022-12-07T04:53:17;7.22;;;4.63;;
74102;SDS011;62853;46.166;3.640;2022-12-07T04:55:43;7.82;;;5.05;;
74102;SDS011;62853;46.166;3.640;2022-12-07T04:58:09;10.77;;;5.50;;
74102;SDS011;62853;46.166;3.640;2022-12-07T05:00:35;9.40;;;5.78;;
74102;SDS011;62853;46.166;3.640;2022-12-07T05:03:00;7.78;;;5.07;;
74102;SDS011;62853;46.166;3.640;2022-12-07T05:05:25;8.45;;;6.15;;
74102;SDS011;62853;46.166;3.640;2022-12-07T05:07:51;7.93;;;6.60;;
74102;SDS011;62853;46.166;3.640;2022-12-07T05:10:16;8.68;;;6.40;;
74102;SDS011;62853;46.166;3.640;2022-12-07T05:12:42;10.60;;;6.43;;
74102;SDS011;62853;46.166;3.640;2022-12-07T05:15:07;9.73;;;6.55;;
74102;SDS011;62853;46.166;3.640;2022-12-07T05:17:33;7.35;;;6.18;;
74102;SDS011;62853;46.166;3.640;2022-12-07T05:19:59;10.02;;;5.80;;
74102;SDS011;62853;46.166;3.640;2022-12-07T05:22:24;7.80;;;4.97;;
74102;SDS011;62853;46.166;3.640;2022-12-07T05:24:53;8.43;;;4.90;;
74102;SDS011;62853;46.166;3.640;2022-12-07T05:27:19;10.70;;;4.60;;
74102;SDS011;62853;46.166;3.640;2022-12-07T05:29:44;8.32;;;4.20;;
74102;SDS011;62853;46.166;3.640;2022-12-07T05:32:10;9.23;;;3.70;;
74102;SDS011;62853;46.166;3.640;2022-12-07T05:34:35;5.60;;;4.20;;
74102;SDS011;62853;46.166;3.640;2022-12-07T05:37:00;5.88;;;3.58;;
74102;SDS011;62853;46.166;3.640;2022-12-07T05:39:26;9.23;;;4.10;;
74102;SDS011;62853;46.166;3.640;2022-12-07T05:41:51;4.55;;;3.38;;
74102;SDS011;62853;46.166;3.640;2022-12-07T05:44:35;7.25;;;3.83;;
74102;SDS011;62853;46.166;3.640;2022-12-07T05:47:00;5.70;;;3.40;;
74102;SDS011;62853;46.166;3.640;2022-12-07T05:49:25;6.57;;;3.80;;
74102;SDS011;62853;46.166;3.640;2022-12-07T05:51:51;4.47;;;3.85;;
74102;SDS011;62853;46.166;3.640;2022-12-07T05:54:17;4.82;;;3.70;;
74102;SDS011;62853;46.166;3.640;2022-12-07T05:56:42;5.45;;;3.63;;
74102;SDS011;62853;46.166;3.640;2022-12-07T05:59:08;4.97;;;3.80;;
74102;SDS011;62853;46.166;3.640;2022-12-07T06:01:56;10.13;;;4.03;;
74102;SDS011;62853;46.166;3.640;2022-12-07T06:04:22;7.53;;;3.85;;
74102;SDS011;62853;46.166;3.640;2022-12-07T06:06:49;6.72;;;3.20;;
74102;SDS011;62853;46.166;3.640;2022-12-07T06:09:14;5.80;;;2.75;;
74102;SDS011;62853;46.166;3.640;2022-12-07T06:11:40;4.43;;;3.10;;
74102;SDS011;62853;46.166;3.640;2022-12-07T06:14:24;6.72;;;3.95;;
74102;SDS011;62853;46.166;3.640;2022-12-07T06:16:50;8.75;;;3.67;;
74102;SDS011;62853;46.166;3.640;2022-12-07T06:19:15;4.13;;;3.00;;
74102;SDS011;62853;46.166;3.640;2022-12-07T06:21:41;7.80;;;3.60;;
74102;SDS011;62853;46.166;3.640;2022-12-07T06:24:06;8.30;;;3.70;;
74102;SDS011;62853;46.166;3.640;2022-12-07T06:26:32;6.20;;;3.85;;
74102;SDS011;62853;46.166;3.640;2022-12-07T06:28:57;6.88;;;3.53;;
74102;SDS011;62853;46.166;3.640;2022-12-07T06:31:23;9.00;;;4.38;;
74102;SDS011;62853;46.166;3.640;2022-12-07T06:33:48;7.50;;;4.57;;
74102;SDS011;62853;46.166;3.640;2022-12-07T06:36:14;7.32;;;4.35;;
74102;SDS011;62853;46.166;3.640;2022-12-07T06:38:39;9.95;;;4.35;;
74102;SDS011;62853;46.166;3.640;2022-12-07T06:41:05;7.40;;;4.30;;
74102;SDS011;62853;46.166;3.640;2022-12-07T06:43:31;9.77;;;4.82;;
74102;SDS011;62853;46.166;3.640;2022-12-07T06:45:57;10.23;;;5.45;;
74102;SDS011;62853;46.166;3.640;2022-12-07T06:48:22;9.57;;;5.80;;
74102;SDS011;62853;46.166;3.640;2022-12-07T06:50:48;12.85;;;8.32;;
74102;SDS011;62853;46.166;3.640;2022-12-07T06:53:13;11.52;;;7.22;;
74102;SDS011;62853;46.166;3.640;2022-12-07T06:55:38;12.10;;;7.88;;
74102;SDS011;62853;46.166;3.640;2022-12-07T06:58:04;11.77;;;7.60;;
74102;SDS011;62853;46.166;3.640;2022-12-07T07:00:29;12.15;;;7.18;;
74102;SDS011;62853;46.166;3.640;2022-12-07T07:02:55;17.83;;;8.00;;
74102;SDS011;62853;46.166;3.640;2022-12-07T07:05:20;11.68;;;8.15;;
74102;SDS011;62853;46.166;3.640;2022-12-07T07:07:47;12.48;;;8.10;;
74102;SDS011;62853;46.166;3.640;2022-12-07T07:10:13;14.57;;;8.45;;
74102;SDS011;62853;46.166;3.640;2022-12-07T07:12:39;12.13;;;8.73;;
74102;SDS011;62853;46.166;3.640;2022-12-07T07:15:04;11.75;;;8.90;;
74102;SDS011;62853;46.166;3.640;2022-12-07T07:17:30;12.90;;;7.97;;
74102;SDS011;62853;46.166;3.640;2022-12-07T07:19:55;13.68;;;9.10;;
74102;SDS011;62853;46.166;3.640;2022-12-07T07:22:20;14.95;;;9.57;;
74102;SDS011;62853;46.166;3.640;2022-12-07T07:24:46;14.95;;;9.40;;
74102;SDS011;62853;46.166;3.640;2022-12-07T07:27:11;12.10;;;8.18;;
74102;SDS011;62853;46.166;3.640;2022-12-07T07:29:37;10.70;;;8.40;;
74102;SDS011;62853;46.166;3.640;2022-12-07T07:32:02;13.50;;;9.35;;
74102;SDS011;62853;46.166;3.640;2022-12-07T07:34:27;11.98;;;8.75;;
74102;SDS011;62853;46.166;3.640;2022-12-07T07:36:53;14.63;;;10.05;;
74102;SDS011;62853;46.166;3.640;2022-12-07T07:39:18;16.75;;;9.52;;
74102;SDS011;62853;46.166;3.640;2022-12-07T07:41:43;13.27;;;9.73;;
74102;SDS011;62853;46.166;3.640;2022-12-07T07:44:09;16.60;;;10.40;;
74102;SDS011;62853;46.166;3.640;2022-12-07T07:46:35;15.88;;;10.15;;
74102;SDS011;62853;46.166;3.640;2022-12-07T07:49:00;14.23;;;10.07;;
74102;SDS011;62853;46.166;3.640;2022-12-07T07:51:25;15.48;;;9.65;;
74102;SDS011;62853;46.166;3.640;2022-12-07T07:53:51;20.48;;;10.68;;
74102;SDS011;62853;46.166;3.640;2022-12-07T07:56:16;14.77;;;10.68;;
74102;SDS011;62853;46.166;3.640;2022-12-07T07:58:41;16.52;;;12.35;;
74102;SDS011;62853;46.166;3.640;2022-12-07T08:01:07;19.13;;;10.60;;
74102;SDS011;62853;46.166;3.640;2022-12-07T08:03:33;14.27;;;10.73;;
74102;SDS011;62853;46.166;3.640;2022-12-07T08:05:59;15.73;;;10.90;;
74102;SDS011;62853;46.166;3.640;2022-12-07T08:08:24;13.05;;;9.95;;
74102;SDS011;62853;46.166;3.640;2022-12-07T08:10:49;16.52;;;10.05;;
74102;SDS011;62853;46.166;3.640;2022-12-07T08:13:15;14.20;;;10.52;;
74102;SDS011;62853;46.166;3.640;2022-12-07T08:15:45;13.60;;;9.13;;
74102;SDS011;62853;46.166;3.640;2022-12-07T08:18:13;12.15;;;9.00;;
74102;SDS011;62853;46.166;3.640;2022-12-07T08:20:39;16.80;;;11.63;;
74102;SDS011;62853;46.166;3.640;2022-12-07T08:23:06;15.20;;;11.63;;
74102;SDS011;62853;46.166;3.640;2022-12-07T08:25:32;18.75;;;11.45;;
74102;SDS011;62853;46.166;3.640;2022-12-07T08:27:58;17.25;;;11.38;;
74102;SDS011;62853;46.166;3.640;2022-12-07T08:30:24;17.15;;;10.48;;
74102;SDS011;62853;46.166;3.640;2022-12-07T08:32:49;19.42;;;10.50;;
74102;SDS011;62853;46.166;3.640;2022-12-07T08:35:15;14.95;;;9.50;;
74102;SDS011;62853;46.166;3.640;2022-12-07T08:37:41;15.73;;;10.35;;
74102;SDS011;62853;46.166;3.640;2022-12-07T08:40:07;11.63;;;8.93;;
74102;SDS011;62853;46.166;3.640;2022-12-07T08:42:34;12.73;;;7.63;;
74102;SDS011;62853;46.166;3.640;2022-12-07T08:45:06;11.65;;;8.38;;
74102;SDS011;62853;46.166;3.640;2022-12-07T08:47:34;15.70;;;9.60;;
74102;SDS011;62853;46.166;3.640;2022-12-07T08:50:05;15.70;;;10.18;;
74102;SDS011;62853;46.166;3.640;2022-12-07T08:52:33;20.58;;;10.23;;
74102;SDS011;62853;46.166;3.640;2022-12-07T08:55:00;13.63;;;9.35;;
74102;SDS011;62853;46.166;3.640;2022-12-07T08:57:27;11.82;;;9.02;;
74102;SDS011;62853;46.166;3.640;2022-12-07T08:59:53;12.55;;;9.10;;
74102;SDS011;62853;46.166;3.640;2022-12-07T09:02:19;15.20;;;9.02;;
74102;SDS011;62853;46.166;3.640;2022-12-07T09:04:44;14.05;;;7.63;;
74102;SDS011;62853;46.166;3.640;2022-12-07T09:07:10;14.57;;;8.32;;
74102;SDS011;62853;46.166;3.640;2022-12-07T09:09:35;11.77;;;8.25;;
74102;SDS011;62853;46.166;3.640;2022-12-07T09:12:01;11.25;;;8.05;;
74102;SDS011;62853;46.166;3.640;2022-12-07T09:14:26;14.32;;;7.88;;
74102;SDS011;62853;46.166;3.640;2022-12-07T09:16:51;14.13;;;8.63;;
74102;SDS011;62853;46.166;3.640;2022-12-07T09:19:17;17.08;;;10.20;;
74102;SDS011;62853;46.166;3.640;2022-12-07T09:21:42;15.05;;;9.82;;
74102;SDS011;62853;46.166;3.640;2022-12-07T09:24:07;14.52;;;9.80;;
74102;SDS011;62853;46.166;3.640;2022-12-07T09:26:34;13.20;;;10.48;;
74102;SDS011;62853;46.166;3.640;2022-12-07T09:29:00;14.20;;;9.43;;
74102;SDS011;62853;46.166;3.640;2022-12-07T09:31:27;13.45;;;8.15;;
74102;SDS011;62853;46.166;3.640;2022-12-07T09:33:56;13.02;;;8.55;;
74102;SDS011;62853;46.166;3.640;2022-12-07T09:36:25;11.95;;;8.38;;
74102;SDS011;62853;46.166;3.640;2022-12-07T09:38:51;12.48;;;6.40;;
74102;SDS011;62853;46.166;3.640;2022-12-07T09:41:17;10.70;;;6.68;;
74102;SDS011;62853;46.166;3.640;2022-12-07T09:43:43;9.77;;;6.45;;
74102;SDS011;62853;46.166;3.640;2022-12-07T09:46:10;8.18;;;5.82;;
74102;SDS011;62853;46.166;3.640;2022-12-07T09:48:39;15.60;;;8.90;;
74102;SDS011;62853;46.166;3.640;2022-12-07T09:51:25;10.15;;;7.35;;
74102;SDS011;62853;46.166;3.640;2022-12-07T09:56:17;13.95;;;9.30;;
74102;SDS011;62853;46.166;3.640;2022-12-07T09:58:44;11.00;;;7.65;;
74102;SDS011;62853;46.166;3.640;2022-12-07T10:01:17;12.30;;;7.57;;
74102;SDS011;62853;46.166;3.640;2022-12-07T10:03:48;14.75;;;8.23;;
74102;SDS011;62853;46.166;3.640;2022-12-07T10:06:16;11.60;;;8.07;;
74102;SDS011;62853;46.166;3.640;2022-12-07T10:08:42;11.75;;;7.82;;
74102;SDS011;62853;46.166;3.640;2022-12-07T10:11:08;13.93;;;7.93;;
74102;SDS011;62853;46.166;3.640;2022-12-07T10:13:37;8.93;;;6.93;;
74102;SDS011;62853;46.166;3.640;2022-12-07T10:16:04;18.73;;;7.80;;
74102;SDS011;62853;46.166;3.640;2022-12-07T10:21:02;9.70;;;6.30;;
74102;SDS011;62853;46.166;3.640;2022-12-07T10:23:28;10.98;;;6.80;;
74102;SDS011;62853;46.166;3.640;2022-12-07T10:25:53;12.50;;;6.65;;
74102;SDS011;62853;46.166;3.640;2022-12-07T10:28:20;12.55;;;6.75;;
74102;SDS011;62853;46.166;3.640;2022-12-07T10:30:50;10.60;;;6.88;;
74102;SDS011;62853;46.166;3.640;2022-12-07T10:36:15;8.48;;;6.03;;
74102;SDS011;62853;46.166;3.640;2022-12-07T10:38:59;10.93;;;6.63;;
74102;SDS011;62853;46.166;3.640;2022-12-07T10:41:35;10.98;;;6.15;;
74102;SDS011;62853;46.166;3.640;2022-12-07T10:44:20;10.68;;;6.15;;
74102;SDS011;62853;46.166;3.640;2022-12-07T10:46:56;8.63;;;5.60;;
74102;SDS011;62853;46.166;3.640;2022-12-07T10:52:14;10.50;;;5.93;;
74102;SDS011;62853;46.166;3.640;2022-12-07T10:55:20;10.90;;;5.38;;
74102;SDS011;62853;46.166;3.640;2022-12-07T11:03:36;12.55;;;7.10;;
74102;SDS011;62853;46.166;3.640;2022-12-07T11:09:35;12.88;;;6.05;;
74102;SDS011;62853;46.166;3.640;2022-12-07T11:17:46;10.20;;;6.25;;
74102;SDS011;62853;46.166;3.640;2022-12-07T11:20:27;10.50;;;5.70;;
74102;SDS011;62853;46.166;3.640;2022-12-07T11:23:18;10.02;;;5.65;;
74102;SDS011;62853;46.166;3.640;2022-12-07T11:31:45;8.43;;;5.57;;
74102;SDS011;62853;46.166;3.640;2022-12-07T11:34:27;16.38;;;9.50;;
74102;SDS011;62853;46.166;3.640;2022-12-07T11:37:07;11.32;;;6.22;;
74102;SDS011;62853;46.166;3.640;2022-12-07T11:39:43;9.93;;;4.68;;
74102;SDS011;62853;46.166;3.640;2022-12-07T11:42:15;7.47;;;3.53;;
74102;SDS011;62853;46.166;3.640;2022-12-07T11:44:55;4.57;;;3.25;;
74102;SDS011;62853;46.166;3.640;2022-12-07T11:53:09;6.40;;;2.95;;
74102;SDS011;62853;46.166;3.640;2022-12-07T12:03:52;7.65;;;2.80;;
74102;SDS011;62853;46.166;3.640;2022-12-07T12:06:34;6.03;;;2.83;;
74102;SDS011;62853;46.166;3.640;2022-12-07T12:09:17;6.05;;;2.35;;
74102;SDS011;62853;46.166;3.640;2022-12-07T12:20:13;4.35;;;2.08;;
74102;SDS011;62853;46.166;3.640;2022-12-07T12:22:41;5.25;;;1.90;;
74102;SDS011;62853;46.166;3.640;2022-12-07T12:25:35;6.25;;;2.50;;
74102;SDS011;62853;46.166;3.640;2022-12-07T12:31:07;6.13;;;2.10;;
74102;SDS011;62853;46.166;3.640;2022-12-07T12:33:34;5.80;;;2.17;;
74102;SDS011;62853;46.166;3.640;2022-12-07T12:39:07;6.70;;;2.45;;
74102;SDS011;62853;46.166;3.640;2022-12-07T12:46:59;4.97;;;2.45;;
74102;SDS011;62853;46.166;3.640;2022-12-07T12:57:34;6.70;;;2.10;;
74102;SDS011;62853;46.166;3.640;2022-12-07T13:00:02;4.60;;;1.67;;
74102;SDS011;62853;46.166;3.640;2022-12-07T13:02:53;5.65;;;1.80;;
74102;SDS011;62853;46.166;3.640;2022-12-07T13:05:24;4.18;;;2.10;;
74102;SDS011;62853;46.166;3.640;2022-12-07T13:18:22;4.25;;;1.48;;
74102;SDS011;62853;46.166;3.640;2022-12-07T13:23:35;2.90;;;1.80;;
74102;SDS011;62853;46.166;3.640;2022-12-07T13:29:17;6.00;;;2.00;;
74102;SDS011;62853;46.166;3.640;2022-12-07T13:31:52;4.28;;;1.80;;
74102;SDS011;62853;46.166;3.640;2022-12-07T13:37:08;5.32;;;3.10;;
74102;SDS011;62853;46.166;3.640;2022-12-07T13:39:52;5.35;;;2.55;;
74102;SDS011;62853;46.166;3.640;2022-12-07T13:42:27;4.75;;;2.05;;
74102;SDS011;62853;46.166;3.640;2022-12-07T13:44:55;5.40;;;2.85;;
74102;SDS011;62853;46.166;3.640;2022-12-07T13:47:32;5.53;;;2.25;;
74102;SDS011;62853;46.166;3.640;2022-12-07T13:50:21;8.15;;;2.03;;
74102;SDS011;62853;46.166;3.640;2022-12-07T13:52:49;5.15;;;2.13;;
74102;SDS011;62853;46.166;3.640;2022-12-07T13:55:15;7.03;;;2.72;;
74102;SDS011;62853;46.166;3.640;2022-12-07T13:57:50;4.55;;;2.78;;
74102;SDS011;62853;46.166;3.640;2022-12-07T14:00:18;4.93;;;2.97;;
74102;SDS011;62853;46.166;3.640;2022-12-07T14:05:31;6.97;;;2.85;;
74102;SDS011;62853;46.166;3.640;2022-12-07T14:07:59;4.22;;;2.53;;
74102;SDS011;62853;46.166;3.640;2022-12-07T14:13:22;6.90;;;2.90;;
74102;SDS011;62853;46.166;3.640;2022-12-07T14:16:03;6.00;;;2.80;;
74102;SDS011;62853;46.166;3.640;2022-12-07T14:18:43;4.40;;;2.80;;
74102;SDS011;62853;46.166;3.640;2022-12-07T14:23:33;4.55;;;2.90;;
74102;SDS011;62853;46.166;3.640;2022-12-07T14:26:05;5.75;;;3.40;;
74102;SDS011;62853;46.166;3.640;2022-12-07T14:28:43;2.47;;;2.03;;
74102;SDS011;62853;46.166;3.640;2022-12-07T14:31:16;5.13;;;2.97;;
74102;SDS011;62853;46.166;3.640;2022-12-07T14:33:45;5.07;;;2.53;;
74102;SDS011;62853;46.166;3.640;2022-12-07T14:36:10;3.60;;;2.45;;
74102;SDS011;62853;46.166;3.640;2022-12-07T14:38:37;3.97;;;2.70;;
74102;SDS011;62853;46.166;3.640;2022-12-07T14:41:03;3.05;;;2.40;;
74102;SDS011;62853;46.166;3.640;2022-12-07T14:43:50;6.35;;;2.83;;
74102;SDS011;62853;46.166;3.640;2022-12-07T14:46:15;6.30;;;2.70;;
74102;SDS011;62853;46.166;3.640;2022-12-07T14:48:41;5.10;;;2.40;;
74102;SDS011;62853;46.166;3.640;2022-12-07T14:51:07;5.93;;;2.80;;
74102;SDS011;62853;46.166;3.640;2022-12-07T14:53:39;4.85;;;2.42;;
74102;SDS011;62853;46.166;3.640;2022-12-07T14:56:06;2.70;;;2.20;;
74102;SDS011;62853;46.166;3.640;2022-12-07T14:58:33;9.63;;;2.90;;
74102;SDS011;62853;46.166;3.640;2022-12-07T15:00:58;4.32;;;2.63;;
74102;SDS011;62853;46.166;3.640;2022-12-07T15:03:25;4.57;;;3.10;;
74102;SDS011;62853;46.166;3.640;2022-12-07T15:05:50;4.47;;;2.80;;
74102;SDS011;62853;46.166;3.640;2022-12-07T15:08:16;3.72;;;2.65;;
74102;SDS011;62853;46.166;3.640;2022-12-07T15:10:41;7.47;;;2.63;;
74102;SDS011;62853;46.166;3.640;2022-12-07T15:13:07;5.20;;;2.85;;
74102;SDS011;62853;46.166;3.640;2022-12-07T15:15:52;3.90;;;2.63;;
74102;SDS011;62853;46.166;3.640;2022-12-07T15:18:18;5.80;;;2.58;;
74102;SDS011;62853;46.166;3.640;2022-12-07T15:20:45;3.38;;;2.50;;
74102;SDS011;62853;46.166;3.640;2022-12-07T15:23:11;6.05;;;2.60;;
74102;SDS011;62853;46.166;3.640;2022-12-07T15:25:40;3.42;;;2.40;;
74102;SDS011;62853;46.166;3.640;2022-12-07T15:28:05;3.63;;;1.88;;
74102;SDS011;62853;46.166;3.640;2022-12-07T15:30:31;4.88;;;2.00;;
74102;SDS011;62853;46.166;3.640;2022-12-07T15:32:56;3.22;;;1.85;;
74102;SDS011;62853;46.166;3.640;2022-12-07T15:35:21;4.20;;;1.88;;
74102;SDS011;62853;46.166;3.640;2022-12-07T15:37:47;3.25;;;2.30;;
74102;SDS011;62853;46.166;3.640;2022-12-07T15:40:12;2.67;;;2.08;;
74102;SDS011;62853;46.166;3.640;2022-12-07T15:42:38;5.72;;;2.30;;
74102;SDS011;62853;46.166;3.640;2022-12-07T15:45:04;3.95;;;2.45;;
74102;SDS011;62853;46.166;3.640;2022-12-07T15:47:34;3.42;;;1.98;;
74102;SDS011;62853;46.166;3.640;2022-12-07T15:50:06;5.97;;;2.80;;
74102;SDS011;62853;46.166;3.640;2022-12-07T15:52:33;4.32;;;2.80;;
74102;SDS011;62853;46.166;3.640;2022-12-07T15:54:59;5.97;;;2.92;;
74102;SDS011;62853;46.166;3.640;2022-12-07T15:57:25;5.38;;;2.60;;
74102;SDS011;62853;46.166;3.640;2022-12-07T15:59:51;4.50;;;3.50;;
74102;SDS011;62853;46.166;3.640;2022-12-07T16:02:16;5.68;;;3.58;;
74102;SDS011;62853;46.166;3.640;2022-12-07T16:04:42;4.68;;;3.33;;
74102;SDS011;62853;46.166;3.640;2022-12-07T16:07:07;6.28;;;2.80;;
74102;SDS011;62853;46.166;3.640;2022-12-07T16:09:33;3.60;;;2.50;;
74102;SDS011;62853;46.166;3.640;2022-12-07T16:11:59;8.15;;;2.70;;
74102;SDS011;62853;46.166;3.640;2022-12-07T16:14:24;4.72;;;2.95;;
74102;SDS011;62853;46.166;3.640;2022-12-07T16:16:50;4.38;;;2.92;;
74102;SDS011;62853;46.166;3.640;2022-12-07T16:19:15;4.60;;;2.80;;
74102;SDS011;62853;46.166;3.640;2022-12-07T16:21:40;3.88;;;2.72;;
74102;SDS011;62853;46.166;3.640;2022-12-07T16:24:07;3.97;;;2.60;;
74102;SDS011;62853;46.166;3.640;2022-12-07T16:26:33;6.00;;;3.60;;
74102;SDS011;62853;46.166;3.640;2022-12-07T16:28:59;6.55;;;3.22;;
74102;SDS011;62853;46.166;3.640;2022-12-07T16:31:25;6.28;;;3.17;;
74102;SDS011;62853;46.166;3.640;2022-12-07T16:33:55;4.70;;;3.60;;
74102;SDS011;62853;46.166;3.640;2022-12-07T16:36:22;6.22;;;3.72;;
74102;SDS011;62853;46.166;3.640;2022-12-07T16:38:49;6.97;;;3.88;;
74102;SDS011;62853;46.166;3.640;2022-12-07T16:41:15;7.80;;;3.92;;
74102;SDS011;62853;46.166;3.640;2022-12-07T16:43:40;6.47;;;4.20;;
74102;SDS011;62853;46.166;3.640;2022-12-07T16:46:06;6.45;;;3.60;;
74102;SDS011;62853;46.166;3.640;2022-12-07T16:48:31;6.07;;;3.33;;
74102;SDS011;62853;46.166;3.640;2022-12-07T16:51:02;5.15;;;3.10;;
74102;SDS011;62853;46.166;3.640;2022-12-07T16:53:29;6.85;;;3.22;;
74102;SDS011;62853;46.166;3.640;2022-12-07T16:55:54;5.40;;;2.92;;
74102;SDS011;62853;46.166;3.640;2022-12-07T16:58:20;4.80;;;2.90;;
74102;SDS011;62853;46.166;3.640;2022-12-07T17:00:45;9.93;;;3.20;;
74102;SDS011;62853;46.166;3.640;2022-12-07T17:03:11;5.28;;;2.70;;